Time;durP1;ratioP1;P1;durP2;ratioP2;P2;SDS_P1;SDS_P2;PMS_P1;PMS_P2;Temp;Humidity;BMP_temperature;BMP_pressure;BME280_temperature;BME280_humidity;BME280_pressure;Samples;Min_cycle;Max_cycle;Signal;HPM_P1;HPM_P2
2022/02/24 00:37:14;;;;;;;0.00;0.00;;;;;;;7.74;65.74;99334.97;4840506;29;20147;-81
2022/02/24 00:52:27;;;;;;;0.00;0.00;;;;;;;7.80;64.95;99339.28;4981568;23;20053;-81
2022/02/24 00:54:52;;;;;;;0.00;0.00;;;;;;;7.82;64.54;99336.38;4870377;29;20043;-81
2022/02/24 01:00:52;;;;;;;0.00;0.00;;;;;;;7.74;64.91;99334.97;4878764;29;20057;-82
2022/02/24 01:06:58;;;;;;;0.00;0.00;;;;;;;7.60;65.87;99341.72;4824158;29;20078;-82
2022/02/24 01:10:21;;;;;;;0.10;0.10;;;;;;;7.55;65.92;99329.16;4829159;29;20054;-82
2022/02/24 01:12:47;;;;;;;0.10;0.10;;;;;;;7.49;66.03;99324.81;4823331;29;20208;-81
2022/02/24 01:15:12;;;;;;;0.00;0.00;;;;;;;7.46;66.02;99326.13;4825212;29;20523;-79
2022/02/24 01:17:40;;;;;;;0.00;0.00;;;;;;;7.46;65.81;99317.34;4820207;29;20069;-80
2022/02/24 01:22:43;;;;;;;0.00;0.00;;;;;;;7.48;65.83;99318.72;4946994;23;20072;-81
2022/02/24 01:25:10;;;;;;;0.10;0.10;;;;;;;7.40;64.62;99311.16;4875836;29;20528;-79
2022/02/24 01:27:46;;;;;;;0.00;0.00;;;;;;;7.40;65.40;99308.50;4862970;29;20045;-81
2022/02/24 01:30:12;;;;;;;0.00;0.00;;;;;;;7.40;64.10;99313.81;4873795;29;20067;-80
2022/02/24 01:32:38;;;;;;;0.00;0.00;;;;;;;7.38;64.02;99302.59;4864374;29;20067;-78
2022/02/24 01:35:04;;;;;;;0.00;0.00;;;;;;;7.34;64.87;99298.84;4862466;29;20025;-80
2022/02/24 01:37:29;;;;;;;0.00;0.00;;;;;;;7.37;64.67;99308.97;4852371;29;20033;-80
2022/02/24 01:39:55;;;;;;;0.00;0.00;;;;;;;7.34;64.32;99294.31;4854656;29;20052;-80
2022/02/24 01:50:06;;;;;;;0.00;0.00;;;;;;;7.39;64.09;99311.41;4836783;29;20054;-81
2022/02/24 01:52:32;;;;;;;0.20;0.20;;;;;;;7.40;64.58;99308.50;4820025;29;20046;-79
2022/02/24 01:54:57;;;;;;;0.10;0.10;;;;;;;7.37;64.57;99309.81;4808559;29;20568;-79
2022/02/24 01:57:25;;;;;;;0.10;0.10;;;;;;;7.42;64.84;99313.56;4827817;29;20067;-82
2022/02/24 02:14:36;;;;;;;0.00;0.00;;;;;;;7.26;65.76;99318.69;4828541;29;20034;-82
2022/02/24 02:17:04;;;;;;;0.10;0.10;;;;;;;7.27;65.94;99320.31;4819668;29;20050;-80
2022/02/24 02:22:12;;;;;;;0.10;0.10;;;;;;;7.25;66.29;99316.28;5118505;23;20061;-81
2022/02/24 02:24:38;;;;;;;0.00;0.00;;;;;;;7.20;65.88;99314.34;4836911;29;20064;-81
2022/02/24 02:27:31;;;;;;;0.17;0.17;;;;;;;7.05;66.64;99310.47;4835120;29;20025;-80
2022/02/24 02:30:34;;;;;;;0.00;0.00;;;;;;;7.26;66.18;99315.22;5164299;23;20220;-81
2022/02/24 02:33:41;;;;;;;0.00;0.00;;;;;;;7.29;66.45;99317.41;4868940;29;20112;-81
2022/02/24 02:39:10;;;;;;;0.10;0.10;;;;;;;7.01;67.33;99317.31;5684435;23;20064;-82
2022/02/24 02:59:30;;;;;;;0.30;0.30;;;;;;;6.66;69.11;99339.66;5293934;23;20053;-81
2022/02/24 03:14:44;;;;;;;0.00;0.00;;;;;;;6.57;68.86;99341.16;5620011;23;20072;-81
2022/02/24 03:20:02;;;;;;;0.73;0.73;;;;;;;6.61;68.34;99352.09;5711758;23;20064;-83
2022/02/24 03:29:02;;;;;;;0.00;0.00;;;;;;;6.71;67.41;99347.75;5134860;23;20047;-81
2022/02/24 03:31:29;;;;;;;0.00;0.00;;;;;;;6.79;67.48;99354.50;4872181;29;20049;-79
2022/02/24 03:33:56;;;;;;;0.35;0.35;;;;;;;6.85;67.62;99353.53;4860182;29;20045;-79
2022/02/24 03:36:22;;;;;;;0.00;0.00;;;;;;;6.85;67.68;99358.03;4852673;29;20029;-78
2022/02/24 03:38:47;;;;;;;0.30;0.30;;;;;;;6.87;67.76;99362.06;4851419;29;20093;-80
2022/02/24 03:49:43;;;;;;;0.47;0.47;;;;;;;7.02;67.29;99355.38;4904997;23;20060;-80
2022/02/24 04:02:57;;;;;;;0.00;0.00;;;;;;;7.10;67.47;99354.13;5374981;23;20072;-82
2022/02/24 04:05:23;;;;;;;0.00;0.00;;;;;;;7.03;67.07;99351.63;4859710;29;20049;-81
2022/02/24 04:07:48;;;;;;;0.00;0.00;;;;;;;7.02;67.56;99358.81;4863957;29;20089;-82
2022/02/24 04:30:57;;;;;;;0.00;0.00;;;;;;;7.05;68.78;99376.13;5532731;23;20061;-81
2022/02/24 04:33:22;;;;;;;0.00;0.00;;;;;;;7.14;68.75;99380.00;4872470;29;20048;-79
2022/02/24 04:36:28;;;;;;;0.00;0.00;;;;;;;7.14;68.74;99382.66;4867532;29;20413;-81
2022/02/24 04:38:54;;;;;;;0.00;0.00;;;;;;;7.14;69.14;99385.31;4876023;29;20515;-81
2022/02/24 04:41:42;;;;;;;0.00;0.00;;;;;;;7.17;69.17;99384.81;4869003;29;20041;-81
2022/02/24 04:44:13;;;;;;;;;;;;;;;7.17;69.14;99392.00;4865864;29;20044;-81
2022/02/24 04:46:39;;;;;;;0.00;0.00;;;;;;;7.13;69.30;99385.53;4862117;29;19919;-80
2022/02/24 04:49:04;;;;;;;0.10;0.10;;;;;;;7.13;69.14;99381.03;4859835;29;20413;-78
2022/02/24 04:51:31;;;;;;;0.00;0.00;;;;;;;7.10;69.64;99384.19;4868291;29;20039;-81
2022/02/24 04:53:56;;;;;;;0.00;0.00;;;;;;;7.08;69.56;99380.16;4863478;29;20060;-79
2022/02/24 04:57:03;;;;;;;0.00;0.00;;;;;;;7.10;69.22;99383.38;4879585;29;20066;-82
2022/02/24 04:59:45;;;;;;;0.00;0.00;;;;;;;7.14;69.48;99387.16;4879492;29;20032;-80
2022/02/24 05:02:16;;;;;;;0.00;0.00;;;;;;;7.14;69.73;99389.81;4867277;29;20033;-81
2022/02/24 05:08:19;;;;;;;0.00;0.00;;;;;;;7.26;69.09;99393.16;4895729;29;20097;-81
2022/02/24 05:10:46;;;;;;;0.00;0.00;;;;;;;7.21;68.87;99401.91;4887318;29;20157;-79
2022/02/24 05:13:22;;;;;;;0.00;0.00;;;;;;;7.22;68.86;99408.81;4876546;29;20037;-83
2022/02/24 05:15:49;;;;;;;0.00;0.00;;;;;;;7.16;68.31;99407.13;4865946;29;20097;-79
2022/02/24 05:21:42;;;;;;;0.00;0.00;;;;;;;7.19;68.70;99414.66;5232132;23;20069;-80
2022/02/24 05:24:08;;;;;;;0.00;0.00;;;;;;;7.21;68.23;99420.53;4830241;29;20413;-79
2022/02/24 05:26:33;;;;;;;0.00;0.00;;;;;;;7.23;68.49;99422.94;4841398;29;20425;-79
2022/02/24 05:28:59;;;;;;;0.00;0.00;;;;;;;7.28;67.83;99430.19;4839305;29;20029;-79
2022/02/24 05:31:24;;;;;;;0.00;0.00;;;;;;;7.36;67.94;99437.75;4842585;29;20032;-79
2022/02/24 05:33:50;;;;;;;0.00;0.00;;;;;;;7.43;67.38;99440.25;4842944;29;20552;-78
2022/02/24 05:36:15;;;;;;;0.00;0.00;;;;;;;7.41;67.81;99437.00;4859723;29;20553;-79
2022/02/24 05:38:40;;;;;;;0.80;0.80;;;;;;;7.39;67.16;99445.25;4859257;29;20066;-77
2022/02/24 05:41:06;;;;;;;0.17;0.17;;;;;;;7.36;67.11;99437.75;4842868;29;20036;-77
2022/02/24 05:43:31;;;;;;;0.00;0.00;;;;;;;7.42;67.16;99451.94;4842055;29;20033;-77
2022/02/24 05:45:57;;;;;;;0.30;0.28;;;;;;;7.42;66.73;99457.25;4842378;29;20044;-77
2022/02/24 05:48:24;;;;;;;0.00;0.00;;;;;;;7.42;66.96;99462.56;4842689;29;20675;-79
2022/02/24 05:50:49;;;;;;;0.00;0.00;;;;;;;7.41;67.11;99475.09;4859109;29;20519;-78
2022/02/24 05:53:15;;;;;;;0.30;0.30;;;;;;;7.43;67.14;99469.50;4857796;29;20033;-78
2022/02/24 05:55:41;;;;;;;0.00;0.00;;;;;;;7.46;66.44;99475.16;4842212;29;20120;-78
2022/02/24 05:58:06;;;;;;;0.00;0.00;;;;;;;7.36;66.46;99477.66;4842227;29;20037;-78
2022/02/24 06:00:32;;;;;;;0.10;0.10;;;;;;;7.28;66.43;99472.75;4859098;29;20037;-79
2022/02/24 06:02:57;;;;;;;0.00;0.00;;;;;;;7.30;66.29;99468.81;4842674;29;20536;-78
2022/02/24 06:05:22;;;;;;;0.00;0.00;;;;;;;7.29;65.50;99475.16;4842745;29;20037;-78
2022/02/24 06:07:48;;;;;;;0.20;0.20;;;;;;;7.33;64.77;99472.84;4859122;29;20037;-79
2022/02/24 06:10:14;;;;;;;0.00;0.00;;;;;;;7.26;64.85;99470.31;4841756;29;20041;-79
2022/02/24 06:12:39;;;;;;;0.00;0.00;;;;;;;7.33;64.70;99476.28;4857416;29;20061;-79
2022/02/24 06:15:07;;;;;;;0.08;0.08;;;;;;;7.26;64.91;99486.28;4861174;29;20068;-79
2022/02/24 06:17:33;;;;;;;0.00;0.00;;;;;;;7.22;65.23;99491.28;4845709;29;20052;-78
2022/02/24 06:19:59;;;;;;;0.00;0.00;;;;;;;7.19;65.25;99494.44;4846124;29;20543;-80
2022/02/24 06:22:24;;;;;;;0.10;0.10;;;;;;;7.11;65.70;99502.81;4845319;29;20489;-79
2022/02/24 06:24:51;;;;;;;0.00;0.00;;;;;;;7.07;65.68;99507.03;4862294;29;20045;-78
2022/02/24 06:27:18;;;;;;;0.08;0.08;;;;;;;7.03;66.17;99509.34;4845904;29;20037;-79
2022/02/24 06:29:44;;;;;;;0.00;0.00;;;;;;;7.01;66.99;99508.00;4845687;29;20068;-78
2022/02/24 06:32:10;;;;;;;0.00;0.00;;;;;;;7.02;66.86;99506.94;4845851;29;20477;-79
2022/02/24 06:34:35;;;;;;;0.00;0.00;;;;;;;7.01;66.48;99508.00;4845184;29;20040;-79
2022/02/24 06:37:01;;;;;;;0.10;0.10;;;;;;;6.99;66.34;99516.19;4845385;29;20112;-78
2022/02/24 06:39:26;;;;;;;0.00;0.00;;;;;;;7.02;66.59;99513.06;4845278;29;20489;-79
2022/02/24 06:41:52;;;;;;;0.00;0.00;;;;;;;7.05;66.06;99520.56;4845333;29;20033;-78
2022/02/24 06:44:17;;;;;;;0.00;0.00;;;;;;;7.05;66.52;99520.56;4845110;29;20045;-78
2022/02/24 06:46:44;;;;;;;0.20;0.20;;;;;;;6.97;66.35;99522.78;4861324;29;20029;-78
2022/02/24 06:49:10;;;;;;;0.20;0.20;;;;;;;6.88;67.61;99539.16;4845055;29;20048;-78
2022/02/24 06:51:36;;;;;;;0.00;0.00;;;;;;;6.87;67.67;99536.72;4862339;29;20397;-78
2022/02/24 06:54:01;;;;;;;0.08;0.08;;;;;;;6.86;68.09;99541.25;4861838;29;20036;-78
2022/02/24 06:56:27;;;;;;;0.00;0.00;;;;;;;6.86;67.75;99548.38;4844864;29;20061;-79
2022/02/24 06:58:53;;;;;;;0.20;0.20;;;;;;;6.81;68.18;99550.97;4845392;29;20041;-79
2022/02/24 07:01:18;;;;;;;0.20;0.20;;;;;;;6.78;68.41;99552.25;4845139;29;20447;-79
2022/02/24 07:03:44;;;;;;;3.25;1.23;;;;;;;6.80;68.19;99560.81;4845001;29;20109;-78
2022/02/24 07:06:10;;;;;;;0.00;0.00;;;;;;;6.72;68.33;99551.34;4844950;29;20036;-78
2022/02/24 07:08:36;;;;;;;0.00;0.00;;;;;;;6.72;68.29;99555.88;4844888;29;20080;-79
2022/02/24 07:11:04;;;;;;;0.10;0.10;;;;;;;6.75;68.53;99559.91;4844953;29;20525;-80
2022/02/24 07:13:30;;;;;;;0.00;0.00;;;;;;;6.74;68.61;99556.44;4861689;29;20097;-79
2022/02/24 07:15:55;;;;;;;0.00;0.00;;;;;;;6.79;68.69;99559.19;4862010;29;20041;-79
2022/02/24 07:18:21;;;;;;;0.00;0.00;;;;;;;6.83;68.73;99573.59;4844820;29;20033;-78
2022/02/24 07:20:47;;;;;;;5.15;0.73;;;;;;;6.81;68.46;99575.72;4849134;29;20038;-78
2022/02/24 07:23:13;;;;;;;5.03;1.33;;;;;;;6.80;68.91;99566.13;4861254;29;20065;-79
2022/02/24 07:25:39;;;;;;;0.20;0.20;;;;;;;6.81;69.67;99575.72;4861568;29;20040;-78
2022/02/24 07:28:07;;;;;;;0.52;0.52;;;;;;;6.84;69.40;99561.94;4845773;29;20062;-78
2022/02/24 07:30:36;;;;;;;0.10;0.10;;;;;;;6.80;69.33;99575.94;4845948;29;20480;-78
2022/02/24 07:33:02;;;;;;;0.10;0.10;;;;;;;6.73;69.98;99584.84;4846645;29;20026;-79
2022/02/24 07:35:27;;;;;;;0.00;0.00;;;;;;;6.71;69.75;99588.81;4845582;29;20032;-78
2022/02/24 07:37:53;;;;;;;0.05;0.05;;;;;;;6.69;70.33;99596.22;4844765;29;20121;-78
2022/02/24 07:40:18;;;;;;;0.00;0.00;;;;;;;6.78;70.11;99589.47;4845203;29;20063;-78
2022/02/24 07:42:44;;;;;;;0.00;0.00;;;;;;;6.81;69.97;99594.31;4862159;29;20406;-79
2022/02/24 07:45:10;;;;;;;0.00;0.00;;;;;;;6.81;69.80;99591.66;4845418;29;20138;-78
2022/02/24 07:47:35;;;;;;;0.22;0.22;;;;;;;6.80;70.54;99586.56;4845639;29;20030;-78
2022/02/24 07:50:01;;;;;;;0.00;0.00;;;;;;;6.83;69.31;99602.84;4862459;29;20434;-79
2022/02/24 07:52:27;;;;;;;0.00;0.00;;;;;;;6.79;69.45;99592.94;4862322;29;20029;-78
2022/02/24 07:54:54;;;;;;;0.00;0.00;;;;;;;6.80;70.41;99592.72;4846470;29;20508;-78
2022/02/24 07:57:20;;;;;;;0.00;0.00;;;;;;;6.84;70.33;99587.72;4846969;29;20029;-78
2022/02/24 07:59:46;;;;;;;0.00;0.00;;;;;;;6.86;70.33;99599.72;4863186;29;20067;-78
2022/02/24 08:02:11;;;;;;;0.00;0.00;;;;;;;6.90;69.96;99602.72;4863499;29;20097;-78
2022/02/24 08:04:37;;;;;;;0.00;0.00;;;;;;;6.95;70.27;99605.47;4847129;29;20030;-78
2022/02/24 08:07:03;;;;;;;0.20;0.20;;;;;;;6.99;69.74;99605.81;4845956;29;20032;-78
2022/02/24 08:09:29;;;;;;;0.00;0.00;;;;;;;7.03;69.13;99613.06;4845584;29;20452;-79
2022/02/24 08:14:38;;;;;;;0.00;0.00;;;;;;;7.04;69.34;99600.56;4863831;29;20124;-79
2022/02/24 08:17:05;;;;;;;0.00;0.00;;;;;;;7.11;69.46;99603.88;4845761;29;20128;-79
2022/02/24 08:19:30;;;;;;;0.32;0.32;;;;;;;7.14;69.21;99597.28;4844862;29;20124;-78
2022/02/24 08:21:56;;;;;;;0.45;0.45;;;;;;;7.15;68.72;99599.72;4844516;29;20537;-79
2022/02/24 08:24:21;;;;;;;0.20;0.20;;;;;;;7.28;69.05;99605.78;4861594;29;20047;-78
2022/02/24 08:26:47;;;;;;;0.00;0.00;;;;;;;7.28;68.95;99603.13;4861490;29;20038;-78
2022/02/24 08:29:12;;;;;;;0.10;0.10;;;;;;;7.28;68.97;99603.91;4861198;29;20034;-78
2022/02/24 08:31:38;;;;;;;0.10;0.10;;;;;;;7.29;68.16;99602.88;4861260;29;20041;-78
2022/02/24 08:34:03;;;;;;;0.00;0.00;;;;;;;7.40;68.56;99609.19;4861337;29;20616;-79
2022/02/24 08:36:30;;;;;;;0.10;0.10;;;;;;;7.40;67.91;99605.69;4845019;29;20085;-78
2022/02/24 08:38:56;;;;;;;0.35;0.35;;;;;;;7.39;67.09;99602.25;4861573;29;20032;-79
2022/02/24 08:41:21;;;;;;;0.50;0.50;;;;;;;7.40;66.82;99603.03;4859434;29;20120;-78
2022/02/24 08:43:47;;;;;;;0.25;0.25;;;;;;;7.40;66.45;99590.56;4844696;29;20040;-79
2022/02/24 08:46:12;;;;;;;0.00;0.00;;;;;;;7.47;66.38;99606.34;4859665;29;20030;-78
2022/02/24 08:48:38;;;;;;;0.45;0.45;;;;;;;7.47;65.71;99601.03;4860874;29;20026;-79
2022/02/24 08:51:03;;;;;;;0.00;0.00;;;;;;;7.46;65.20;99618.06;4843862;29;20033;-79
2022/02/24 08:53:28;;;;;;;0.00;0.00;;;;;;;7.50;65.29;99601.34;4844667;29;20496;-79
2022/02/24 08:55:54;;;;;;;0.00;0.00;;;;;;;7.50;65.72;99614.66;4845081;29;20030;-79
2022/02/24 08:58:19;;;;;;;0.00;0.00;;;;;;;7.46;65.22;99616.19;4843412;29;20482;-79
2022/02/24 09:00:49;;;;;;;0.40;0.40;;;;;;;7.50;64.95;99627.16;4843071;29;20040;-79
2022/02/24 09:03:15;;;;;;;0.03;0.03;;;;;;;7.50;64.98;99625.31;4842976;29;20089;-79
2022/02/24 09:05:42;;;;;;;0.47;0.47;;;;;;;7.45;64.99;99627.88;4842977;29;20062;-79
2022/02/24 09:08:08;;;;;;;0.45;0.45;;;;;;;7.40;64.86;99619.81;4842987;29;20065;-79
2022/02/24 09:10:33;;;;;;;0.30;0.30;;;;;;;7.51;66.01;99618.94;4842669;29;20096;-79
2022/02/24 09:12:59;;;;;;;0.10;0.10;;;;;;;7.43;64.84;99590.06;4859886;29;20052;-79
2022/02/24 09:15:26;;;;;;;0.00;0.00;;;;;;;7.42;65.87;99628.38;4857845;29;20112;-79
2022/02/24 09:17:51;;;;;;;0.13;0.13;;;;;;;7.46;66.60;99618.84;4842756;29;20041;-79
2022/02/24 09:20:17;;;;;;;0.10;0.10;;;;;;;7.51;65.98;99623.47;4842987;29;20481;-79
2022/02/24 09:22:43;;;;;;;0.30;0.30;;;;;;;7.55;65.71;99640.56;4842224;29;20046;-79
2022/02/24 09:25:09;;;;;;;0.00;0.00;;;;;;;7.50;65.69;99614.66;4859621;29;20497;-79
2022/02/24 09:27:36;;;;;;;0.00;0.00;;;;;;;7.51;66.16;99623.47;4859416;29;20474;-78
2022/02/24 09:30:03;;;;;;;0.00;0.00;;;;;;;7.51;64.98;99634.91;4842544;29;20030;-78
2022/02/24 09:32:29;;;;;;;0.25;0.25;;;;;;;7.57;65.11;99629.66;4842010;29;20030;-78
2022/02/24 09:34:54;;;;;;;0.52;0.52;;;;;;;7.61;64.79;99634.25;4842587;29;20034;-79
2022/02/24 09:37:20;;;;;;;0.00;0.00;;;;;;;7.57;63.82;99632.31;4843128;29;20492;-79
2022/02/24 09:39:45;;;;;;;0.10;0.10;;;;;;;7.56;63.66;99644.03;4842300;29;20036;-78
2022/02/24 09:42:13;;;;;;;0.38;0.38;;;;;;;7.58;64.39;99624.13;4842549;29;20041;-77
2022/02/24 09:44:39;;;;;;;0.85;0.47;;;;;;;7.60;64.64;99632.66;4859090;29;20084;-78
2022/02/24 09:47:06;;;;;;;0.00;0.00;;;;;;;7.63;64.53;99621.53;4842539;29;20482;-78
2022/02/24 09:49:33;;;;;;;0.80;0.80;;;;;;;7.65;63.81;99630.09;4843851;29;20116;-78
2022/02/24 09:51:59;;;;;;;0.00;0.00;;;;;;;7.62;63.81;99640.41;4863175;29;20033;-78
2022/02/24 09:54:25;;;;;;;0.00;0.00;;;;;;;7.67;63.92;99633.28;4846025;29;20032;-79
2022/02/24 09:56:50;;;;;;;0.38;0.38;;;;;;;7.72;63.15;99629.13;4861466;29;20125;-78
2022/02/24 09:59:16;;;;;;;0.10;0.10;;;;;;;7.67;61.88;99616.53;4846251;29;20041;-78
2022/02/24 10:01:41;;;;;;;1.40;1.30;;;;;;;7.71;61.64;99649.59;4845929;29;20033;-78
2022/02/24 10:04:09;;;;;;;1.55;1.45;;;;;;;7.72;61.59;99615.81;4845962;29;20037;-80
2022/02/24 10:06:44;;;;;;;0.20;0.20;;;;;;;7.79;62.10;99614.59;4845630;29;20124;-78
2022/02/24 10:09:18;;;;;;;0.03;0.03;;;;;;;7.90;62.97;99615.53;4846015;29;20040;-78
2022/02/24 10:11:44;;;;;;;0.55;0.55;;;;;;;7.77;62.13;99614.00;4862426;29;20041;-77
2022/02/24 10:14:15;;;;;;;0.00;0.00;;;;;;;7.77;61.08;99622.00;4845656;29;20508;-79
2022/02/24 10:17:04;;;;;;;0.25;0.25;;;;;;;7.82;61.87;99598.13;4862296;29;20040;-79
2022/02/24 10:19:39;;;;;;;0.00;0.00;;;;;;;7.78;60.33;99597.00;4860902;29;20037;-79
2022/02/24 10:22:25;;;;;;;0.00;0.00;;;;;;;7.84;61.32;99611.19;4845415;29;20140;-77
2022/02/24 10:25:06;;;;;;;0.05;0.05;;;;;;;7.83;61.59;99602.38;4845680;29;20486;-79
2022/02/24 10:27:38;;;;;;;0.00;0.00;;;;;;;7.83;60.71;99607.72;4845377;29;20037;-78
2022/02/24 10:30:10;;;;;;;0.00;0.00;;;;;;;7.82;60.66;99602.63;4862349;29;20116;-79
2022/02/24 10:32:52;;;;;;;0.70;0.52;;;;;;;7.95;61.62;99604.16;4860569;29;20561;-79
2022/02/24 10:35:32;;;;;;;0.00;0.00;;;;;;;7.91;59.58;99611.00;4845405;29;20026;-80
2022/02/24 10:38:12;;;;;;;0.38;0.38;;;;;;;7.94;59.54;99619.31;4861878;29;20513;-79
2022/02/24 10:40:46;;;;;;;0.10;0.10;;;;;;;7.95;59.58;99620.16;4845201;29;20510;-80
2022/02/24 10:43:11;;;;;;;0.00;0.00;;;;;;;7.81;57.82;99627.66;4845368;29;20152;-80
2022/02/24 10:45:39;;;;;;;0.10;0.10;;;;;;;7.83;58.21;99599.72;4861992;29;20522;-79
2022/02/24 10:48:06;;;;;;;0.15;0.15;;;;;;;7.87;59.95;99609.91;4845310;29;20088;-76
2022/02/24 10:50:53;;;;;;;1.35;1.25;;;;;;;7.87;59.94;99592.06;4844551;29;20033;-79
2022/02/24 10:53:21;;;;;;;0.35;0.35;;;;;;;7.83;59.04;99599.72;4860466;29;20030;-79
2022/02/24 10:56:01;;;;;;;1.13;0.90;;;;;;;7.89;59.39;99613.94;4845182;29;20040;-79
2022/02/24 10:58:29;;;;;;;0.00;0.00;;;;;;;7.75;58.16;99599.34;4844804;29;20486;-77
2022/02/24 11:01:15;;;;;;;0.10;0.10;;;;;;;7.67;59.63;99619.97;4845258;29;20402;-79
2022/02/24 11:03:43;;;;;;;0.20;0.20;;;;;;;7.72;59.66;99613.94;4846886;29;20068;-79
2022/02/24 11:06:10;;;;;;;0.50;0.50;;;;;;;7.69;60.12;99617.09;4861748;29;20057;-78
2022/02/24 11:08:36;;;;;;;0.00;0.00;;;;;;;7.71;61.18;99607.00;4844310;29;20041;-78
2022/02/24 11:11:03;;;;;;;0.10;0.10;;;;;;;7.72;59.98;99613.16;4844698;29;20034;-79
2022/02/24 11:13:30;;;;;;;0.00;0.00;;;;;;;7.75;59.59;99604.66;4861304;29;20033;-79
2022/02/24 11:15:57;;;;;;;0.45;0.45;;;;;;;7.68;59.71;99610.16;4845120;29;20097;-79
2022/02/24 11:18:23;;;;;;;1.17;1.17;;;;;;;7.69;59.39;99615.22;4844602;29;20405;-79
2022/02/24 11:20:50;;;;;;;0.00;0.00;;;;;;;7.72;59.60;99605.16;4848170;29;20037;-79
2022/02/24 11:23:16;;;;;;;0.40;0.32;;;;;;;7.77;60.59;99602.56;4826315;29;20062;-79
2022/02/24 11:25:51;;;;;;;0.25;0.25;;;;;;;7.74;60.40;99601.19;4826132;29;20399;-78
2022/02/24 11:28:21;;;;;;;0.00;0.00;;;;;;;7.66;61.18;99610.38;4826466;29;20041;-77
2022/02/24 11:30:52;;;;;;;0.00;0.00;;;;;;;7.64;61.11;99585.06;4826212;29;20097;-78
2022/02/24 11:33:17;;;;;;;0.38;0.38;;;;;;;7.58;61.48;99615.31;4826450;29;20126;-78
2022/02/24 11:35:43;;;;;;;0.00;0.00;;;;;;;7.53;61.25;99608.88;4825926;29;20528;-77
2022/02/24 11:38:13;;;;;;;0.00;0.00;;;;;;;7.65;61.54;99610.63;4826171;29;20497;-78
2022/02/24 11:40:40;;;;;;;1.33;1.25;;;;;;;7.59;61.32;99587.66;4825731;29;20566;-78
2022/02/24 11:43:21;;;;;;;0.00;0.00;;;;;;;7.62;61.88;99595.16;4826051;29;20129;-78
2022/02/24 11:45:52;;;;;;;0.00;0.00;;;;;;;7.65;62.05;99603.47;4841091;29;20491;-78
2022/02/24 11:48:20;;;;;;;0.32;0.32;;;;;;;7.62;62.05;99600.47;4825799;29;20044;-78
2022/02/24 11:50:54;;;;;;;0.00;0.00;;;;;;;7.63;61.59;99592.25;4825870;29;20044;-78
2022/02/24 11:53:26;;;;;;;1.15;1.08;;;;;;;7.61;62.00;99604.19;4841019;29;20362;-78
2022/02/24 11:55:57;;;;;;;1.45;1.00;;;;;;;7.70;62.22;99605.38;4825983;29;20103;-78
2022/02/24 11:58:35;;;;;;;0.13;0.13;;;;;;;7.74;61.84;99597.72;4825595;29;20037;-78
2022/02/24 12:01:12;;;;;;;0.00;0.00;;;;;;;7.80;61.32;99597.56;4842172;29;20037;-78
2022/02/24 12:03:43;;;;;;;0.00;0.00;;;;;;;7.82;61.81;99586.66;4825588;29;20459;-77
2022/02/24 12:06:13;;;;;;;0.00;0.00;;;;;;;7.84;62.20;99590.69;4825546;29;20496;-79
2022/02/24 12:09:04;;;;;;;0.00;0.00;;;;;;;7.85;60.99;99578.19;4825138;29;20033;-78
2022/02/24 12:11:35;;;;;;;0.00;0.00;;;;;;;7.85;60.82;99600.28;4824702;29;20034;-77
2022/02/24 12:14:01;;;;;;;0.70;0.70;;;;;;;7.83;60.07;99591.72;4825400;29;20042;-78
2022/02/24 12:16:27;;;;;;;0.20;0.20;;;;;;;7.87;61.63;99604.56;4842251;29;20029;-78
2022/02/24 12:18:55;;;;;;;0.43;0.30;;;;;;;7.77;60.81;99598.03;4825503;29;20033;-77
2022/02/24 12:21:33;;;;;;;0.00;0.00;;;;;;;7.79;60.52;99595.94;4840530;29;20092;-79
2022/02/24 12:24:04;;;;;;;0.20;0.20;;;;;;;7.78;59.93;99575.69;4825095;29;20030;-79
2022/02/24 12:26:50;;;;;;;0.40;0.40;;;;;;;7.74;59.98;99582.56;4824808;29;20122;-79
2022/02/24 12:29:39;;;;;;;0.00;0.00;;;;;;;7.82;60.94;99576.84;4841330;29;20163;-79
2022/02/24 12:32:06;;;;;;;0.10;0.10;;;;;;;7.81;60.07;99577.06;4841880;29;20034;-79
2022/02/24 12:34:34;;;;;;;0.00;0.00;;;;;;;7.89;59.99;99579.31;4841237;29;20022;-79
2022/02/24 12:37:29;;;;;;;0.10;0.10;;;;;;;7.98;60.50;99577.03;4824884;29;20038;-79
2022/02/24 12:39:54;;;;;;;0.00;0.00;;;;;;;7.82;59.02;99562.69;4840102;29;20070;-79
2022/02/24 12:42:21;;;;;;;0.10;0.10;;;;;;;7.87;59.22;99573.41;4824328;29;20095;-79
2022/02/24 12:44:46;;;;;;;0.68;0.68;;;;;;;7.93;59.61;99556.44;4839495;29;20026;-78
2022/02/24 12:47:12;;;;;;;0.00;0.00;;;;;;;7.95;59.68;99582.84;4824604;29;20403;-78
2022/02/24 12:49:45;;;;;;;0.10;0.10;;;;;;;7.92;58.48;99567.34;4824408;29;20394;-79
2022/02/24 12:52:15;;;;;;;0.00;0.00;;;;;;;8.01;58.45;99563.22;4824983;29;20037;-79
2022/02/24 12:54:42;;;;;;;0.00;0.00;;;;;;;8.04;59.13;99560.06;4824605;29;20093;-78
2022/02/24 12:57:07;;;;;;;0.10;0.10;;;;;;;8.00;59.17;99566.94;4841430;29;20037;-79
2022/02/24 12:59:35;;;;;;;0.15;0.15;;;;;;;7.96;58.92;99574.63;4824842;29;20036;-78
2022/02/24 13:02:00;;;;;;;0.20;0.20;;;;;;;8.06;58.89;99567.81;4839949;29;20041;-78
2022/02/24 13:04:28;;;;;;;0.00;0.00;;;;;;;8.15;59.50;99553.00;4841305;29;20034;-78
2022/02/24 13:06:53;;;;;;;0.00;0.00;;;;;;;8.22;59.65;99555.50;4824783;29;20037;-79
2022/02/24 13:12:08;;;;;;;0.00;0.00;;;;;;;8.25;58.03;99553.16;4840946;29;20125;-79
2022/02/24 13:14:35;;;;;;;0.00;0.00;;;;;;;8.28;57.86;99546.50;4824442;29;20033;-79
2022/02/24 13:17:02;;;;;;;0.05;0.05;;;;;;;8.45;56.47;99549.13;4824529;29;20030;-79
2022/02/24 13:19:27;;;;;;;0.00;0.00;;;;;;;8.36;54.60;99551.41;4839698;29;20049;-79
2022/02/24 13:21:54;;;;;;;0.10;0.10;;;;;;;8.46;55.68;99566.72;4824145;29;20050;-79
2022/02/24 13:24:34;;;;;;;0.10;0.10;;;;;;;8.35;55.73;99531.16;4839219;29;20090;-78
2022/02/24 13:27:02;;;;;;;0.00;0.00;;;;;;;8.46;57.05;99550.72;4824553;29;20541;-79
2022/02/24 13:29:28;;;;;;;0.00;0.00;;;;;;;8.43;56.24;99546.69;4839402;29;20030;-78
2022/02/24 13:32:14;;;;;;;0.13;0.13;;;;;;;8.40;56.23;99559.69;4824173;29;20034;-79
2022/02/24 13:34:43;;;;;;;0.28;0.28;;;;;;;8.53;55.65;99551.34;4824104;29;20036;-79
2022/02/24 13:37:13;;;;;;;0.10;0.10;;;;;;;8.39;54.47;99531.47;4840664;29;20046;-79
2022/02/24 13:39:39;;;;;;;0.10;0.10;;;;;;;8.54;54.04;99560.97;4824113;29;20044;-78
2022/02/24 13:42:05;;;;;;;0.88;0.80;;;;;;;8.57;54.96;99547.16;4824377;29;20410;-79
2022/02/24 13:44:39;;;;;;;0.52;0.35;;;;;;;8.59;54.13;99537.03;4841115;29;20034;-79
2022/02/24 13:47:09;;;;;;;0.30;0.30;;;;;;;8.60;53.39;99548.50;4824294;29;20041;-79
2022/02/24 13:49:37;;;;;;;0.00;0.00;;;;;;;8.61;53.48;99540.25;4839144;29;20098;-78
2022/02/24 13:52:04;;;;;;;0.00;0.00;;;;;;;8.63;54.42;99545.34;4839479;29;20042;-78
2022/02/24 13:54:30;;;;;;;0.00;0.00;;;;;;;8.65;53.30;99548.56;4824177;29;20575;-78
2022/02/24 13:56:55;;;;;;;0.00;0.00;;;;;;;8.61;53.42;99540.25;4838806;29;20038;-78
2022/02/24 13:59:23;;;;;;;0.43;0.43;;;;;;;8.63;52.51;99545.34;4824285;29;20125;-78
2022/02/24 14:01:53;;;;;;;0.15;0.15;;;;;;;8.66;52.78;99547.50;4823944;29;20044;-79
2022/02/24 14:04:22;;;;;;;0.00;0.00;;;;;;;8.62;52.19;99527.75;4840181;29;20030;-79
2022/02/24 14:06:48;;;;;;;0.17;0.17;;;;;;;8.60;52.29;99537.84;4838908;29;20038;-79
2022/02/24 14:09:19;;;;;;;0.17;0.17;;;;;;;8.49;51.48;99512.94;4824232;29;20514;-79
2022/02/24 14:11:46;;;;;;;0.35;0.35;;;;;;;8.55;51.44;99511.13;4824012;29;20607;-79
2022/02/24 14:14:11;;;;;;;0.05;0.05;;;;;;;8.51;51.86;99523.34;4839235;29;20044;-79
2022/02/24 14:16:37;;;;;;;0.10;0.10;;;;;;;8.53;52.48;99522.03;4823741;29;20034;-78
2022/02/24 14:19:04;;;;;;;0.65;0.65;;;;;;;8.48;52.49;99506.81;4823936;29;20179;-79
2022/02/24 14:21:29;;;;;;;0.00;0.00;;;;;;;8.42;51.61;99525.59;4823819;29;20034;-79
2022/02/24 14:23:55;;;;;;;0.00;0.00;;;;;;;8.44;53.04;99523.50;4823931;29;20558;-79
2022/02/24 14:26:22;;;;;;;0.20;0.20;;;;;;;8.43;53.00;99522.69;4839154;29;20034;-79
2022/02/24 14:28:49;;;;;;;0.00;0.00;;;;;;;8.45;52.26;99523.25;4838636;29;20097;-79
2022/02/24 14:31:17;;;;;;;0.63;0.63;;;;;;;8.45;52.43;99531.25;4838920;29;20042;-79
2022/02/24 14:33:43;;;;;;;0.10;0.10;;;;;;;8.46;52.47;99526.75;4838888;29;20513;-79
2022/02/24 14:36:08;;;;;;;0.20;0.20;;;;;;;8.36;53.56;99507.97;4826294;29;20034;-79
2022/02/24 14:38:35;;;;;;;0.20;0.20;;;;;;;8.33;53.57;99520.72;4826820;29;20064;-79
2022/02/24 14:41:01;;;;;;;0.08;0.08;;;;;;;8.38;53.12;99529.84;4826950;29;20137;-79
2022/02/24 14:43:28;;;;;;;0.00;0.00;;;;;;;8.34;53.15;99526.88;4843343;29;20079;-79
2022/02/24 14:45:54;;;;;;;0.40;0.40;;;;;;;8.27;53.43;99526.25;4842074;29;20045;-78
2022/02/24 14:48:21;;;;;;;0.10;0.10;;;;;;;8.20;52.70;99528.28;4843407;29;20335;-79